Aberdeen Regional Airport
KABR : now visible

Airfield :











YOU CAN JOIN US ON...

 
LOGIN :

Register | Disclaimer

   EN    FR    IT 

 









Legend :    VFR   Marginal VFR   IFR   Intensive IFR   Very Intensive IFR
Visi :
Ceiling :
>= 8 km
>= 3000ft
5 to 8 km
1000 to 3000 ft
1500m to 5 km
500 to 1000 ft
800 to 1500m
200 to 500 ft
< 800m
< 200 ft
Symbols :   Thunderstorms  Fog  Heavy snow  Heavy precipitations  Wind > 20 kt






- Airport Elevation : 1302 ft
- IATA code : ABR


KABR - Aberdeen Regional

CURRENT METAR :
  • 250753Z AUTO 22004KT 10SM OVC012 M05/M07 A3002 RMK AO2 SLP187 T10501072

EXPIRED METARs :
  • 250710Z AUTO 20004KT 10SM OVC014 M04/M07 A3004 RMK AO2 T10441067
  • 250653Z AUTO 24003KT 10SM OVC015 M04/M07 A3005 RMK AO2 SLP193 T10441067
  • 250553Z AUTO 28004KT 10SM OVC017 M04/M07 A3005 RMK AO2 SLP194 T10441067 11039 21044 410331044 58006

TAF KABR
Valid from the 25 at 06:00 until the 26 at 06:00 UTC


250528Z 2506/2606 VRB03KT P6SM OVC015
FM250900 VRB03KT P6SM BKN007
FM251500 VRB05KT 1/2SM FG BKN003
FM251900 19008KT P6SM BKN003
FM260500 19005KT P6SM OVC090



MET'MAP, your aeronautical weather chart ! - Copyright ORBIFLY December 2007 - Disclaimer

ORBIFLY MET'MAP TEAM :

Programming & Development : Alexandra Zaïnal
Concept & original design : Baudouin d'Aumeries
Assistance for programming : Marc-Olivier Méhu
Technical & hardware support : Manuel Goepfert

Contact : metmap@orbifly.com




SOURCES & CREDITS :

   NOAA       Earth
Advisory